sensor_id;sensor_type;location;lat;lon;timestamp;P1;durP1;ratioP1;P2;durP2;ratioP2
4268;SDS011;2148;48.554;7.834;2024-02-16T00:00:36;7.07;;;6.07;;
4268;SDS011;2148;48.554;7.834;2024-02-16T00:03:02;9.03;;;6.87;;
4268;SDS011;2148;48.554;7.834;2024-02-16T00:05:27;6.43;;;5.30;;
4268;SDS011;2148;48.554;7.834;2024-02-16T00:07:52;7.27;;;5.47;;
4268;SDS011;2148;48.554;7.834;2024-02-16T00:10:17;6.27;;;5.67;;
4268;SDS011;2148;48.554;7.834;2024-02-16T00:12:44;8.70;;;5.60;;
4268;SDS011;2148;48.554;7.834;2024-02-16T00:15:10;7.37;;;5.17;;
4268;SDS011;2148;48.554;7.834;2024-02-16T00:17:35;7.00;;;5.23;;
4268;SDS011;2148;48.554;7.834;2024-02-16T00:20:02;7.03;;;5.17;;
4268;SDS011;2148;48.554;7.834;2024-02-16T00:22:28;10.77;;;6.77;;
4268;SDS011;2148;48.554;7.834;2024-02-16T00:24:53;5.77;;;5.17;;
4268;SDS011;2148;48.554;7.834;2024-02-16T00:27:18;5.30;;;4.77;;
4268;SDS011;2148;48.554;7.834;2024-02-16T00:29:44;5.63;;;4.93;;
4268;SDS011;2148;48.554;7.834;2024-02-16T00:32:11;5.87;;;4.67;;
4268;SDS011;2148;48.554;7.834;2024-02-16T00:34:36;6.67;;;4.97;;
4268;SDS011;2148;48.554;7.834;2024-02-16T00:37:02;6.17;;;5.20;;
4268;SDS011;2148;48.554;7.834;2024-02-16T00:39:28;6.50;;;5.17;;
4268;SDS011;2148;48.554;7.834;2024-02-16T00:41:54;6.53;;;4.93;;
4268;SDS011;2148;48.554;7.834;2024-02-16T00:44:20;6.53;;;4.70;;
4268;SDS011;2148;48.554;7.834;2024-02-16T00:46:45;4.30;;;3.90;;
4268;SDS011;2148;48.554;7.834;2024-02-16T00:49:10;5.40;;;4.50;;
4268;SDS011;2148;48.554;7.834;2024-02-16T00:51:39;6.13;;;5.00;;
4268;SDS011;2148;48.554;7.834;2024-02-16T00:54:05;6.53;;;4.50;;
4268;SDS011;2148;48.554;7.834;2024-02-16T00:56:31;5.93;;;4.47;;
4268;SDS011;2148;48.554;7.834;2024-02-16T00:58:57;5.80;;;4.40;;
4268;SDS011;2148;48.554;7.834;2024-02-16T01:01:22;5.13;;;3.90;;
4268;SDS011;2148;48.554;7.834;2024-02-16T01:03:48;5.17;;;4.50;;
4268;SDS011;2148;48.554;7.834;2024-02-16T01:06:13;6.67;;;4.20;;
4268;SDS011;2148;48.554;7.834;2024-02-16T01:08:39;6.83;;;4.40;;
4268;SDS011;2148;48.554;7.834;2024-02-16T01:11:04;5.70;;;4.43;;
4268;SDS011;2148;48.554;7.834;2024-02-16T01:13:29;6.43;;;4.07;;
4268;SDS011;2148;48.554;7.834;2024-02-16T01:15:55;4.77;;;3.73;;
4268;SDS011;2148;48.554;7.834;2024-02-16T01:18:20;4.20;;;3.77;;
4268;SDS011;2148;48.554;7.834;2024-02-16T01:20:45;4.93;;;4.13;;
4268;SDS011;2148;48.554;7.834;2024-02-16T01:23:10;7.23;;;4.43;;
4268;SDS011;2148;48.554;7.834;2024-02-16T01:25:36;4.53;;;3.87;;
4268;SDS011;2148;48.554;7.834;2024-02-16T01:28:01;4.50;;;3.77;;
4268;SDS011;2148;48.554;7.834;2024-02-16T01:30:26;3.70;;;3.40;;
4268;SDS011;2148;48.554;7.834;2024-02-16T01:32:52;4.77;;;4.20;;
4268;SDS011;2148;48.554;7.834;2024-02-16T01:35:17;4.53;;;3.73;;
4268;SDS011;2148;48.554;7.834;2024-02-16T01:37:43;4.67;;;3.83;;
4268;SDS011;2148;48.554;7.834;2024-02-16T01:40:09;4.50;;;4.00;;
4268;SDS011;2148;48.554;7.834;2024-02-16T01:42:39;4.73;;;4.20;;
4268;SDS011;2148;48.554;7.834;2024-02-16T01:45:08;4.43;;;4.03;;
4268;SDS011;2148;48.554;7.834;2024-02-16T01:47:34;6.17;;;4.10;;
4268;SDS011;2148;48.554;7.834;2024-02-16T01:50:00;6.57;;;4.73;;
4268;SDS011;2148;48.554;7.834;2024-02-16T01:52:27;4.33;;;3.93;;
4268;SDS011;2148;48.554;7.834;2024-02-16T01:54:52;7.93;;;6.53;;
4268;SDS011;2148;48.554;7.834;2024-02-16T01:57:18;6.47;;;5.87;;
4268;SDS011;2148;48.554;7.834;2024-02-16T01:59:43;7.83;;;7.03;;
4268;SDS011;2148;48.554;7.834;2024-02-16T02:02:08;8.07;;;7.10;;
4268;SDS011;2148;48.554;7.834;2024-02-16T02:04:33;6.90;;;6.30;;
4268;SDS011;2148;48.554;7.834;2024-02-16T02:06:59;7.67;;;6.57;;
4268;SDS011;2148;48.554;7.834;2024-02-16T02:09:24;6.83;;;5.53;;
4268;SDS011;2148;48.554;7.834;2024-02-16T02:11:49;5.97;;;5.23;;
4268;SDS011;2148;48.554;7.834;2024-02-16T02:14:14;5.20;;;4.70;;
4268;SDS011;2148;48.554;7.834;2024-02-16T02:16:40;6.13;;;4.90;;
4268;SDS011;2148;48.554;7.834;2024-02-16T02:19:05;5.70;;;4.53;;
4268;SDS011;2148;48.554;7.834;2024-02-16T02:21:30;4.73;;;3.97;;
4268;SDS011;2148;48.554;7.834;2024-02-16T02:23:56;4.73;;;4.30;;
4268;SDS011;2148;48.554;7.834;2024-02-16T02:26:21;6.60;;;4.33;;
4268;SDS011;2148;48.554;7.834;2024-02-16T02:28:46;4.83;;;4.07;;
4268;SDS011;2148;48.554;7.834;2024-02-16T02:31:11;5.97;;;4.20;;
4268;SDS011;2148;48.554;7.834;2024-02-16T02:33:37;4.80;;;4.30;;
4268;SDS011;2148;48.554;7.834;2024-02-16T02:36:02;8.70;;;4.90;;
4268;SDS011;2148;48.554;7.834;2024-02-16T02:38:30;5.83;;;5.23;;
4268;SDS011;2148;48.554;7.834;2024-02-16T02:40:55;6.17;;;5.20;;
4268;SDS011;2148;48.554;7.834;2024-02-16T02:43:20;5.23;;;4.73;;
4268;SDS011;2148;48.554;7.834;2024-02-16T02:45:47;5.63;;;4.47;;
4268;SDS011;2148;48.554;7.834;2024-02-16T02:48:12;5.23;;;4.57;;
4268;SDS011;2148;48.554;7.834;2024-02-16T02:50:37;6.70;;;4.53;;
4268;SDS011;2148;48.554;7.834;2024-02-16T02:53:03;6.23;;;5.10;;
4268;SDS011;2148;48.554;7.834;2024-02-16T02:55:28;8.03;;;4.53;;
4268;SDS011;2148;48.554;7.834;2024-02-16T02:57:53;6.27;;;4.67;;
4268;SDS011;2148;48.554;7.834;2024-02-16T03:00:19;6.20;;;4.87;;
4268;SDS011;2148;48.554;7.834;2024-02-16T03:02:44;5.40;;;4.50;;
4268;SDS011;2148;48.554;7.834;2024-02-16T03:05:09;5.53;;;4.97;;
4268;SDS011;2148;48.554;7.834;2024-02-16T03:07:36;6.43;;;5.57;;
4268;SDS011;2148;48.554;7.834;2024-02-16T03:10:01;6.60;;;5.33;;
4268;SDS011;2148;48.554;7.834;2024-02-16T03:12:28;7.43;;;5.80;;
4268;SDS011;2148;48.554;7.834;2024-02-16T03:14:53;9.03;;;5.70;;
4268;SDS011;2148;48.554;7.834;2024-02-16T03:17:19;6.33;;;5.10;;
4268;SDS011;2148;48.554;7.834;2024-02-16T03:19:44;6.20;;;4.80;;
4268;SDS011;2148;48.554;7.834;2024-02-16T03:22:09;5.97;;;5.10;;
4268;SDS011;2148;48.554;7.834;2024-02-16T03:24:35;6.87;;;4.87;;
4268;SDS011;2148;48.554;7.834;2024-02-16T03:27:00;6.60;;;6.00;;
4268;SDS011;2148;48.554;7.834;2024-02-16T03:29:25;6.37;;;5.47;;
4268;SDS011;2148;48.554;7.834;2024-02-16T03:31:51;5.83;;;5.27;;
4268;SDS011;2148;48.554;7.834;2024-02-16T03:34:16;6.70;;;5.80;;
4268;SDS011;2148;48.554;7.834;2024-02-16T03:36:41;7.43;;;5.43;;
4268;SDS011;2148;48.554;7.834;2024-02-16T03:39:07;7.20;;;6.10;;
4268;SDS011;2148;48.554;7.834;2024-02-16T03:41:34;6.80;;;5.40;;
4268;SDS011;2148;48.554;7.834;2024-02-16T03:43:59;6.17;;;5.57;;
4268;SDS011;2148;48.554;7.834;2024-02-16T03:46:25;6.37;;;5.17;;
4268;SDS011;2148;48.554;7.834;2024-02-16T03:48:50;7.07;;;5.13;;
4268;SDS011;2148;48.554;7.834;2024-02-16T03:51:15;6.37;;;5.50;;
4268;SDS011;2148;48.554;7.834;2024-02-16T03:53:41;6.63;;;5.47;;
4268;SDS011;2148;48.554;7.834;2024-02-16T03:56:06;6.53;;;5.40;;
4268;SDS011;2148;48.554;7.834;2024-02-16T03:58:32;7.37;;;5.60;;
4268;SDS011;2148;48.554;7.834;2024-02-16T04:00:57;6.43;;;5.20;;
4268;SDS011;2148;48.554;7.834;2024-02-16T04:03:23;7.20;;;5.60;;
4268;SDS011;2148;48.554;7.834;2024-02-16T04:05:48;6.77;;;5.30;;
4268;SDS011;2148;48.554;7.834;2024-02-16T04:08:14;6.33;;;5.73;;
4268;SDS011;2148;48.554;7.834;2024-02-16T04:10:39;6.13;;;5.53;;
4268;SDS011;2148;48.554;7.834;2024-02-16T04:13:05;9.87;;;5.77;;
4268;SDS011;2148;48.554;7.834;2024-02-16T04:15:30;6.83;;;5.40;;
4268;SDS011;2148;48.554;7.834;2024-02-16T04:17:56;7.03;;;5.73;;
4268;SDS011;2148;48.554;7.834;2024-02-16T04:20:21;7.13;;;5.63;;
4268;SDS011;2148;48.554;7.834;2024-02-16T04:22:47;6.77;;;5.57;;
4268;SDS011;2148;48.554;7.834;2024-02-16T04:25:12;8.37;;;5.83;;
4268;SDS011;2148;48.554;7.834;2024-02-16T04:27:38;7.83;;;5.73;;
4268;SDS011;2148;48.554;7.834;2024-02-16T04:30:03;6.67;;;5.53;;
4268;SDS011;2148;48.554;7.834;2024-02-16T04:32:30;7.27;;;5.43;;
4268;SDS011;2148;48.554;7.834;2024-02-16T04:34:55;7.77;;;5.80;;
4268;SDS011;2148;48.554;7.834;2024-02-16T04:37:21;6.67;;;5.77;;
4268;SDS011;2148;48.554;7.834;2024-02-16T04:39:46;7.03;;;5.40;;
4268;SDS011;2148;48.554;7.834;2024-02-16T04:42:12;7.77;;;5.80;;
4268;SDS011;2148;48.554;7.834;2024-02-16T04:44:37;5.47;;;4.90;;
4268;SDS011;2148;48.554;7.834;2024-02-16T04:47:06;6.57;;;5.77;;
4268;SDS011;2148;48.554;7.834;2024-02-16T04:49:31;8.70;;;5.00;;
4268;SDS011;2148;48.554;7.834;2024-02-16T04:51:56;5.37;;;4.87;;
4268;SDS011;2148;48.554;7.834;2024-02-16T04:54:21;9.13;;;6.10;;
4268;SDS011;2148;48.554;7.834;2024-02-16T04:56:47;6.13;;;5.27;;
4268;SDS011;2148;48.554;7.834;2024-02-16T04:59:13;8.10;;;6.20;;
4268;SDS011;2148;48.554;7.834;2024-02-16T05:01:39;8.23;;;5.47;;
4268;SDS011;2148;48.554;7.834;2024-02-16T05:04:04;6.33;;;5.67;;
4268;SDS011;2148;48.554;7.834;2024-02-16T05:06:29;7.47;;;5.80;;
4268;SDS011;2148;48.554;7.834;2024-02-16T05:08:56;7.23;;;5.67;;
4268;SDS011;2148;48.554;7.834;2024-02-16T05:11:21;8.27;;;5.60;;
4268;SDS011;2148;48.554;7.834;2024-02-16T05:13:47;7.40;;;5.43;;
4268;SDS011;2148;48.554;7.834;2024-02-16T05:16:12;8.90;;;6.20;;
4268;SDS011;2148;48.554;7.834;2024-02-16T05:18:38;8.07;;;5.60;;
4268;SDS011;2148;48.554;7.834;2024-02-16T05:21:03;6.97;;;5.80;;
4268;SDS011;2148;48.554;7.834;2024-02-16T05:23:28;7.57;;;5.67;;
4268;SDS011;2148;48.554;7.834;2024-02-16T05:25:54;7.23;;;6.50;;
4268;SDS011;2148;48.554;7.834;2024-02-16T05:28:19;9.00;;;5.83;;
4268;SDS011;2148;48.554;7.834;2024-02-16T05:30:45;7.70;;;5.70;;
4268;SDS011;2148;48.554;7.834;2024-02-16T05:33:10;7.53;;;6.10;;
4268;SDS011;2148;48.554;7.834;2024-02-16T05:35:36;6.87;;;6.10;;
4268;SDS011;2148;48.554;7.834;2024-02-16T05:38:04;6.13;;;5.50;;
4268;SDS011;2148;48.554;7.834;2024-02-16T05:40:32;9.37;;;5.27;;
4268;SDS011;2148;48.554;7.834;2024-02-16T05:43:08;7.13;;;5.97;;
4268;SDS011;2148;48.554;7.834;2024-02-16T05:45:34;7.63;;;5.70;;
4268;SDS011;2148;48.554;7.834;2024-02-16T05:48:00;7.53;;;6.17;;
4268;SDS011;2148;48.554;7.834;2024-02-16T05:50:25;6.03;;;5.43;;
4268;SDS011;2148;48.554;7.834;2024-02-16T05:52:50;7.00;;;5.50;;
4268;SDS011;2148;48.554;7.834;2024-02-16T05:55:16;8.47;;;5.77;;
4268;SDS011;2148;48.554;7.834;2024-02-16T05:57:43;6.10;;;5.50;;
4268;SDS011;2148;48.554;7.834;2024-02-16T06:00:09;5.93;;;5.30;;
4268;SDS011;2148;48.554;7.834;2024-02-16T06:02:35;5.83;;;4.97;;
4268;SDS011;2148;48.554;7.834;2024-02-16T06:05:01;6.27;;;5.30;;
4268;SDS011;2148;48.554;7.834;2024-02-16T06:07:30;8.50;;;5.33;;
4268;SDS011;2148;48.554;7.834;2024-02-16T06:09:55;5.90;;;5.10;;
4268;SDS011;2148;48.554;7.834;2024-02-16T06:12:21;6.70;;;5.93;;
4268;SDS011;2148;48.554;7.834;2024-02-16T06:14:46;6.80;;;5.63;;
4268;SDS011;2148;48.554;7.834;2024-02-16T06:17:13;12.83;;;8.23;;
4268;SDS011;2148;48.554;7.834;2024-02-16T06:19:39;13.63;;;9.73;;
4268;SDS011;2148;48.554;7.834;2024-02-16T06:22:08;13.67;;;8.50;;
4268;SDS011;2148;48.554;7.834;2024-02-16T06:24:33;9.63;;;7.63;;
4268;SDS011;2148;48.554;7.834;2024-02-16T06:26:59;7.87;;;6.30;;
4268;SDS011;2148;48.554;7.834;2024-02-16T06:29:24;9.10;;;6.23;;
4268;SDS011;2148;48.554;7.834;2024-02-16T06:31:50;7.97;;;6.77;;
4268;SDS011;2148;48.554;7.834;2024-02-16T06:34:15;8.33;;;6.00;;
4268;SDS011;2148;48.554;7.834;2024-02-16T06:36:41;8.20;;;5.97;;
4268;SDS011;2148;48.554;7.834;2024-02-16T06:39:07;9.27;;;6.23;;
4268;SDS011;2148;48.554;7.834;2024-02-16T06:41:32;8.10;;;6.07;;
4268;SDS011;2148;48.554;7.834;2024-02-16T06:43:57;6.27;;;5.50;;
4268;SDS011;2148;48.554;7.834;2024-02-16T06:46:22;9.50;;;5.90;;
4268;SDS011;2148;48.554;7.834;2024-02-16T06:48:49;7.63;;;5.60;;
4268;SDS011;2148;48.554;7.834;2024-02-16T06:51:15;7.67;;;6.17;;
4268;SDS011;2148;48.554;7.834;2024-02-16T06:53:40;6.67;;;5.63;;
4268;SDS011;2148;48.554;7.834;2024-02-16T06:56:05;7.07;;;6.10;;
4268;SDS011;2148;48.554;7.834;2024-02-16T06:58:31;6.80;;;5.70;;
4268;SDS011;2148;48.554;7.834;2024-02-16T07:00:56;6.30;;;5.70;;
4268;SDS011;2148;48.554;7.834;2024-02-16T07:03:23;9.00;;;5.83;;
4268;SDS011;2148;48.554;7.834;2024-02-16T07:05:48;7.20;;;6.03;;
4268;SDS011;2148;48.554;7.834;2024-02-16T07:08:14;6.87;;;5.40;;
4268;SDS011;2148;48.554;7.834;2024-02-16T07:10:39;7.77;;;5.93;;
4268;SDS011;2148;48.554;7.834;2024-02-16T07:13:04;8.07;;;5.53;;
4268;SDS011;2148;48.554;7.834;2024-02-16T07:15:29;6.63;;;5.93;;
4268;SDS011;2148;48.554;7.834;2024-02-16T07:17:55;8.57;;;5.50;;
4268;SDS011;2148;48.554;7.834;2024-02-16T07:20:20;5.73;;;4.83;;
4268;SDS011;2148;48.554;7.834;2024-02-16T07:22:45;7.17;;;6.03;;
4268;SDS011;2148;48.554;7.834;2024-02-16T07:25:11;9.23;;;6.23;;
4268;SDS011;2148;48.554;7.834;2024-02-16T07:27:37;7.70;;;5.80;;
4268;SDS011;2148;48.554;7.834;2024-02-16T07:30:03;8.00;;;5.30;;
4268;SDS011;2148;48.554;7.834;2024-02-16T07:32:29;6.97;;;5.77;;
4268;SDS011;2148;48.554;7.834;2024-02-16T07:34:54;6.03;;;5.23;;
4268;SDS011;2148;48.554;7.834;2024-02-16T07:37:19;6.77;;;5.40;;
4268;SDS011;2148;48.554;7.834;2024-02-16T07:39:45;7.27;;;5.97;;
4268;SDS011;2148;48.554;7.834;2024-02-16T07:42:10;7.40;;;5.73;;
4268;SDS011;2148;48.554;7.834;2024-02-16T07:44:36;7.13;;;5.80;;
4268;SDS011;2148;48.554;7.834;2024-02-16T07:47:02;8.17;;;5.40;;
4268;SDS011;2148;48.554;7.834;2024-02-16T07:49:28;10.03;;;5.50;;
4268;SDS011;2148;48.554;7.834;2024-02-16T07:51:53;9.00;;;5.57;;
4268;SDS011;2148;48.554;7.834;2024-02-16T07:54:18;6.70;;;5.70;;
4268;SDS011;2148;48.554;7.834;2024-02-16T07:56:44;7.53;;;5.47;;
4268;SDS011;2148;48.554;7.834;2024-02-16T07:59:09;5.17;;;4.43;;
4268;SDS011;2148;48.554;7.834;2024-02-16T08:01:34;5.67;;;4.97;;
4268;SDS011;2148;48.554;7.834;2024-02-16T08:03:59;7.27;;;4.60;;
4268;SDS011;2148;48.554;7.834;2024-02-16T08:06:25;5.53;;;5.03;;
4268;SDS011;2148;48.554;7.834;2024-02-16T08:08:51;6.17;;;5.00;;
4268;SDS011;2148;48.554;7.834;2024-02-16T08:11:17;7.40;;;5.27;;
4268;SDS011;2148;48.554;7.834;2024-02-16T08:13:42;5.77;;;4.60;;
4268;SDS011;2148;48.554;7.834;2024-02-16T08:16:07;6.83;;;5.40;;
4268;SDS011;2148;48.554;7.834;2024-02-16T08:18:33;6.67;;;5.23;;
4268;SDS011;2148;48.554;7.834;2024-02-16T08:20:59;7.07;;;5.27;;
4268;SDS011;2148;48.554;7.834;2024-02-16T08:23:24;9.83;;;5.53;;
4268;SDS011;2148;48.554;7.834;2024-02-16T08:25:50;7.73;;;6.07;;
4268;SDS011;2148;48.554;7.834;2024-02-16T08:28:15;8.47;;;5.67;;
4268;SDS011;2148;48.554;7.834;2024-02-16T08:30:40;9.50;;;5.53;;
4268;SDS011;2148;48.554;7.834;2024-02-16T08:33:08;7.97;;;5.67;;
4268;SDS011;2148;48.554;7.834;2024-02-16T08:35:34;10.33;;;5.93;;
4268;SDS011;2148;48.554;7.834;2024-02-16T08:37:59;7.60;;;5.03;;
4268;SDS011;2148;48.554;7.834;2024-02-16T08:40:24;8.33;;;5.43;;
4268;SDS011;2148;48.554;7.834;2024-02-16T08:42:50;7.60;;;5.67;;
4268;SDS011;2148;48.554;7.834;2024-02-16T08:45:15;6.07;;;5.43;;
4268;SDS011;2148;48.554;7.834;2024-02-16T08:47:42;8.03;;;4.90;;
4268;SDS011;2148;48.554;7.834;2024-02-16T08:50:08;6.27;;;5.60;;
4268;SDS011;2148;48.554;7.834;2024-02-16T08:52:34;15.47;;;5.63;;
4268;SDS011;2148;48.554;7.834;2024-02-16T08:54:59;9.20;;;5.27;;
4268;SDS011;2148;48.554;7.834;2024-02-16T08:57:25;7.80;;;4.73;;
4268;SDS011;2148;48.554;7.834;2024-02-16T08:59:50;6.40;;;4.30;;
4268;SDS011;2148;48.554;7.834;2024-02-16T09:02:15;5.10;;;4.40;;
4268;SDS011;2148;48.554;7.834;2024-02-16T09:04:40;5.40;;;4.23;;
4268;SDS011;2148;48.554;7.834;2024-02-16T09:07:05;6.67;;;4.50;;
4268;SDS011;2148;48.554;7.834;2024-02-16T09:09:31;5.70;;;4.10;;
4268;SDS011;2148;48.554;7.834;2024-02-16T09:11:56;5.37;;;3.83;;
4268;SDS011;2148;48.554;7.834;2024-02-16T09:14:22;5.70;;;4.67;;
4268;SDS011;2148;48.554;7.834;2024-02-16T09:16:48;7.07;;;4.57;;
4268;SDS011;2148;48.554;7.834;2024-02-16T09:19:16;5.63;;;4.07;;
4268;SDS011;2148;48.554;7.834;2024-02-16T09:21:41;5.67;;;3.67;;
4268;SDS011;2148;48.554;7.834;2024-02-16T09:24:06;5.10;;;4.60;;
4268;SDS011;2148;48.554;7.834;2024-02-16T09:26:35;4.07;;;3.47;;
4268;SDS011;2148;48.554;7.834;2024-02-16T09:29:01;7.80;;;4.40;;
4268;SDS011;2148;48.554;7.834;2024-02-16T09:31:26;4.30;;;3.63;;
4268;SDS011;2148;48.554;7.834;2024-02-16T09:33:52;5.53;;;3.90;;
4268;SDS011;2148;48.554;7.834;2024-02-16T09:36:18;4.73;;;4.00;;
4268;SDS011;2148;48.554;7.834;2024-02-16T09:38:43;5.47;;;4.20;;
4268;SDS011;2148;48.554;7.834;2024-02-16T09:41:09;6.63;;;3.63;;
4268;SDS011;2148;48.554;7.834;2024-02-16T09:43:34;4.10;;;3.03;;
4268;SDS011;2148;48.554;7.834;2024-02-16T09:45:59;4.13;;;3.70;;
4268;SDS011;2148;48.554;7.834;2024-02-16T09:48:25;5.50;;;4.07;;
4268;SDS011;2148;48.554;7.834;2024-02-16T09:50:55;4.57;;;3.67;;
4268;SDS011;2148;48.554;7.834;2024-02-16T09:53:21;3.90;;;3.50;;
4268;SDS011;2148;48.554;7.834;2024-02-16T09:55:49;5.37;;;3.57;;
4268;SDS011;2148;48.554;7.834;2024-02-16T09:58:15;4.73;;;3.27;;
4268;SDS011;2148;48.554;7.834;2024-02-16T10:00:42;3.93;;;3.40;;
4268;SDS011;2148;48.554;7.834;2024-02-16T10:03:07;3.57;;;3.20;;
4268;SDS011;2148;48.554;7.834;2024-02-16T10:05:35;5.50;;;3.33;;
4268;SDS011;2148;48.554;7.834;2024-02-16T10:08:10;4.80;;;3.23;;
4268;SDS011;2148;48.554;7.834;2024-02-16T10:10:36;4.40;;;3.20;;
4268;SDS011;2148;48.554;7.834;2024-02-16T10:15:29;3.10;;;2.73;;
4268;SDS011;2148;48.554;7.834;2024-02-16T10:18:01;5.67;;;3.00;;
4268;SDS011;2148;48.554;7.834;2024-02-16T10:20:27;4.23;;;2.67;;
4268;SDS011;2148;48.554;7.834;2024-02-16T10:23:08;3.43;;;2.77;;
4268;SDS011;2148;48.554;7.834;2024-02-16T10:25:35;4.63;;;2.77;;
4268;SDS011;2148;48.554;7.834;2024-02-16T10:28:05;7.20;;;2.90;;
4268;SDS011;2148;48.554;7.834;2024-02-16T10:30:34;4.57;;;3.27;;
4268;SDS011;2148;48.554;7.834;2024-02-16T10:33:03;51.13;;;12.47;;
4268;SDS011;2148;48.554;7.834;2024-02-16T10:35:30;14.97;;;4.30;;
4268;SDS011;2148;48.554;7.834;2024-02-16T10:37:56;9.00;;;3.57;;
4268;SDS011;2148;48.554;7.834;2024-02-16T10:40:23;5.50;;;2.90;;
4268;SDS011;2148;48.554;7.834;2024-02-16T10:42:51;3.77;;;3.10;;
4268;SDS011;2148;48.554;7.834;2024-02-16T10:45:17;3.80;;;2.73;;
4268;SDS011;2148;48.554;7.834;2024-02-16T10:47:43;4.67;;;2.77;;
4268;SDS011;2148;48.554;7.834;2024-02-16T10:50:09;7.47;;;2.73;;
4268;SDS011;2148;48.554;7.834;2024-02-16T10:52:34;5.00;;;2.70;;
4268;SDS011;2148;48.554;7.834;2024-02-16T10:55:01;4.17;;;2.90;;
4268;SDS011;2148;48.554;7.834;2024-02-16T10:57:29;5.10;;;2.63;;
4268;SDS011;2148;48.554;7.834;2024-02-16T10:59:54;4.60;;;3.07;;
4268;SDS011;2148;48.554;7.834;2024-02-16T11:02:20;7.00;;;2.80;;
4268;SDS011;2148;48.554;7.834;2024-02-16T11:04:47;4.23;;;2.77;;
4268;SDS011;2148;48.554;7.834;2024-02-16T11:07:15;3.63;;;2.60;;
4268;SDS011;2148;48.554;7.834;2024-02-16T11:09:41;4.50;;;2.77;;
4268;SDS011;2148;48.554;7.834;2024-02-16T11:12:07;4.13;;;2.90;;
4268;SDS011;2148;48.554;7.834;2024-02-16T11:14:46;3.33;;;2.70;;
4268;SDS011;2148;48.554;7.834;2024-02-16T11:17:20;4.60;;;2.90;;
4268;SDS011;2148;48.554;7.834;2024-02-16T11:19:47;5.50;;;3.40;;
4268;SDS011;2148;48.554;7.834;2024-02-16T11:22:16;4.43;;;2.60;;
4268;SDS011;2148;48.554;7.834;2024-02-16T11:24:43;3.93;;;3.10;;
4268;SDS011;2148;48.554;7.834;2024-02-16T11:27:12;8.90;;;3.80;;
4268;SDS011;2148;48.554;7.834;2024-02-16T11:29:40;4.27;;;3.57;;
4268;SDS011;2148;48.554;7.834;2024-02-16T11:32:06;6.37;;;4.07;;
4268;SDS011;2148;48.554;7.834;2024-02-16T11:34:32;7.23;;;4.23;;
4268;SDS011;2148;48.554;7.834;2024-02-16T11:36:59;7.27;;;5.20;;
4268;SDS011;2148;48.554;7.834;2024-02-16T11:39:25;12.73;;;6.80;;
4268;SDS011;2148;48.554;7.834;2024-02-16T11:42:07;6.97;;;3.80;;
4268;SDS011;2148;48.554;7.834;2024-02-16T11:44:36;6.87;;;5.40;;
4268;SDS011;2148;48.554;7.834;2024-02-16T11:47:05;8.17;;;4.77;;
4268;SDS011;2148;48.554;7.834;2024-02-16T11:49:32;6.83;;;4.57;;
4268;SDS011;2148;48.554;7.834;2024-02-16T11:52:00;5.07;;;3.73;;
4268;SDS011;2148;48.554;7.834;2024-02-16T11:54:25;4.17;;;3.43;;
4268;SDS011;2148;48.554;7.834;2024-02-16T11:56:51;4.80;;;3.03;;
4268;SDS011;2148;48.554;7.834;2024-02-16T11:59:17;5.93;;;3.23;;
4268;SDS011;2148;48.554;7.834;2024-02-16T12:04:20;5.80;;;3.23;;
4268;SDS011;2148;48.554;7.834;2024-02-16T12:06:52;4.63;;;3.23;;
4268;SDS011;2148;48.554;7.834;2024-02-16T12:09:20;4.87;;;2.90;;
4268;SDS011;2148;48.554;7.834;2024-02-16T12:11:47;6.73;;;2.93;;
4268;SDS011;2148;48.554;7.834;2024-02-16T12:14:13;6.10;;;5.50;;
4268;SDS011;2148;48.554;7.834;2024-02-16T12:16:38;12.03;;;9.13;;
4268;SDS011;2148;48.554;7.834;2024-02-16T12:19:06;4.43;;;3.60;;
4268;SDS011;2148;48.554;7.834;2024-02-16T12:21:32;5.43;;;3.50;;
4268;SDS011;2148;48.554;7.834;2024-02-16T12:23:58;5.83;;;4.40;;
4268;SDS011;2148;48.554;7.834;2024-02-16T12:26:23;5.53;;;5.00;;
4268;SDS011;2148;48.554;7.834;2024-02-16T12:28:49;7.27;;;4.43;;
4268;SDS011;2148;48.554;7.834;2024-02-16T12:31:19;8.17;;;4.07;;
4268;SDS011;2148;48.554;7.834;2024-02-16T12:33:45;4.80;;;3.30;;
4268;SDS011;2148;48.554;7.834;2024-02-16T12:36:10;5.93;;;3.50;;
4268;SDS011;2148;48.554;7.834;2024-02-16T12:38:35;6.43;;;3.17;;
4268;SDS011;2148;48.554;7.834;2024-02-16T12:41:00;7.13;;;3.60;;
4268;SDS011;2148;48.554;7.834;2024-02-16T12:43:26;4.43;;;3.43;;
4268;SDS011;2148;48.554;7.834;2024-02-16T12:45:51;3.87;;;3.43;;
4268;SDS011;2148;48.554;7.834;2024-02-16T12:48:16;4.70;;;3.37;;
4268;SDS011;2148;48.554;7.834;2024-02-16T12:50:42;7.67;;;4.03;;
4268;SDS011;2148;48.554;7.834;2024-02-16T12:53:08;4.40;;;3.33;;
4268;SDS011;2148;48.554;7.834;2024-02-16T12:55:33;4.97;;;3.27;;
4268;SDS011;2148;48.554;7.834;2024-02-16T12:57:58;4.93;;;3.33;;
4268;SDS011;2148;48.554;7.834;2024-02-16T13:00:24;4.40;;;3.60;;
4268;SDS011;2148;48.554;7.834;2024-02-16T13:02:50;4.70;;;2.97;;
4268;SDS011;2148;48.554;7.834;2024-02-16T13:05:15;6.33;;;3.20;;
4268;SDS011;2148;48.554;7.834;2024-02-16T13:07:40;7.47;;;3.97;;
4268;SDS011;2148;48.554;7.834;2024-02-16T13:10:07;9.47;;;4.03;;
4268;SDS011;2148;48.554;7.834;2024-02-16T13:12:33;4.50;;;2.90;;
4268;SDS011;2148;48.554;7.834;2024-02-16T13:14:58;4.30;;;2.87;;
4268;SDS011;2148;48.554;7.834;2024-02-16T13:17:23;4.67;;;3.10;;
4268;SDS011;2148;48.554;7.834;2024-02-16T13:19:49;5.30;;;3.07;;
4268;SDS011;2148;48.554;7.834;2024-02-16T13:22:14;5.20;;;3.43;;
4268;SDS011;2148;48.554;7.834;2024-02-16T13:24:40;3.20;;;2.60;;
4268;SDS011;2148;48.554;7.834;2024-02-16T13:27:06;4.20;;;2.73;;
4268;SDS011;2148;48.554;7.834;2024-02-16T13:29:32;2.73;;;2.40;;
4268;SDS011;2148;48.554;7.834;2024-02-16T13:31:57;3.80;;;2.60;;
4268;SDS011;2148;48.554;7.834;2024-02-16T13:34:22;3.30;;;2.60;;
4268;SDS011;2148;48.554;7.834;2024-02-16T13:36:48;4.53;;;3.07;;
4268;SDS011;2148;48.554;7.834;2024-02-16T13:39:13;3.40;;;2.40;;
4268;SDS011;2148;48.554;7.834;2024-02-16T13:41:40;5.97;;;2.30;;
4268;SDS011;2148;48.554;7.834;2024-02-16T13:44:05;4.40;;;2.20;;
4268;SDS011;2148;48.554;7.834;2024-02-16T13:46:31;4.77;;;2.43;;
4268;SDS011;2148;48.554;7.834;2024-02-16T13:48:56;3.57;;;2.70;;
4268;SDS011;2148;48.554;7.834;2024-02-16T13:51:22;3.17;;;2.60;;
4268;SDS011;2148;48.554;7.834;2024-02-16T13:53:47;5.67;;;2.90;;
4268;SDS011;2148;48.554;7.834;2024-02-16T13:56:13;4.00;;;3.07;;
4268;SDS011;2148;48.554;7.834;2024-02-16T13:58:38;3.17;;;2.87;;
4268;SDS011;2148;48.554;7.834;2024-02-16T14:01:04;3.93;;;2.90;;
4268;SDS011;2148;48.554;7.834;2024-02-16T14:03:30;4.93;;;2.73;;
4268;SDS011;2148;48.554;7.834;2024-02-16T14:05:56;4.07;;;3.00;;
4268;SDS011;2148;48.554;7.834;2024-02-16T14:08:21;5.13;;;2.80;;
4268;SDS011;2148;48.554;7.834;2024-02-16T14:10:47;5.57;;;3.43;;
4268;SDS011;2148;48.554;7.834;2024-02-16T14:13:13;5.73;;;2.80;;
4268;SDS011;2148;48.554;7.834;2024-02-16T14:15:38;4.47;;;3.73;;
4268;SDS011;2148;48.554;7.834;2024-02-16T14:18:03;4.00;;;3.37;;
4268;SDS011;2148;48.554;7.834;2024-02-16T14:20:29;3.77;;;3.27;;
4268;SDS011;2148;48.554;7.834;2024-02-16T14:22:54;4.37;;;3.10;;
4268;SDS011;2148;48.554;7.834;2024-02-16T14:25:20;4.90;;;3.10;;
4268;SDS011;2148;48.554;7.834;2024-02-16T14:27:45;5.67;;;3.57;;
4268;SDS011;2148;48.554;7.834;2024-02-16T14:30:11;5.87;;;3.53;;
4268;SDS011;2148;48.554;7.834;2024-02-16T14:32:37;6.57;;;3.40;;
4268;SDS011;2148;48.554;7.834;2024-02-16T14:35:02;5.83;;;3.50;;
4268;SDS011;2148;48.554;7.834;2024-02-16T14:37:28;4.20;;;3.30;;
4268;SDS011;2148;48.554;7.834;2024-02-16T14:39:53;5.93;;;4.03;;
4268;SDS011;2148;48.554;7.834;2024-02-16T14:42:22;6.20;;;3.70;;
4268;SDS011;2148;48.554;7.834;2024-02-16T14:44:48;9.27;;;4.57;;
4268;SDS011;2148;48.554;7.834;2024-02-16T14:47:13;6.00;;;4.10;;
4268;SDS011;2148;48.554;7.834;2024-02-16T14:49:39;6.07;;;3.70;;
4268;SDS011;2148;48.554;7.834;2024-02-16T14:52:04;5.47;;;3.80;;
4268;SDS011;2148;48.554;7.834;2024-02-16T14:54:30;4.10;;;3.27;;
4268;SDS011;2148;48.554;7.834;2024-02-16T14:56:55;3.93;;;2.80;;
4268;SDS011;2148;48.554;7.834;2024-02-16T14:59:20;6.27;;;3.50;;
4268;SDS011;2148;48.554;7.834;2024-02-16T15:01:45;5.60;;;4.17;;
4268;SDS011;2148;48.554;7.834;2024-02-16T15:04:11;6.90;;;4.17;;
4268;SDS011;2148;48.554;7.834;2024-02-16T15:06:36;5.00;;;3.63;;
4268;SDS011;2148;48.554;7.834;2024-02-16T15:09:01;5.40;;;3.50;;
4268;SDS011;2148;48.554;7.834;2024-02-16T15:11:30;5.20;;;3.90;;